Cape Hatteras Natl Seashore, North Carolina
Current Conditions -  °F | °C
As of 6:51 PM on Friday 24 Oct 2014 (Local Time) from KHSE Reporting Station
Clear Clear  
Wind Chill: 16°   Ceiling: Unl
Heat Index: 16°   Visibility: 10mi
Dew Point: 12°   Wind: 6mph
Humidity: 75%   Direction: 290°WNW
Pressure: 29.94"   Gusts: NA
Location:  35.22°N, 75.68°W
Report Text: KHSE 242251Z AUTO 29005KT 10SM CLR 16/12 A2994 RMK AO2 SLP136 T01610117 TSNO
Loading
Personal Weather Stations






























Interactive Weather Map
Tropical Storm Tracking
New forecast layout! Learn more

10-Day Weather Forecast

Advertisements
Track Severe Weather on mobile